Time;durP1;ratioP1;P1;durP2;ratioP2;P2;SDS_P1;SDS_P2;PMS_P1;PMS_P2;Temp;Humidity;BMP_temperature;BMP_pressure;BME280_temperature;BME280_humidity;BME280_pressure;Samples;Min_cycle;Max_cycle;Signal;HPM_P1;HPM_P2
2023/06/10 00:02:17;;;;;;;12.50;5.25;;;17.10;99.90;;;;;;4869930;29;20036;-87
2023/06/10 00:04:43;;;;;;;10.85;5.63;;;17.10;99.90;;;;;;4900588;29;20036;-88
2023/06/10 00:07:09;;;;;;;11.43;5.70;;;17.10;99.90;;;;;;4884857;29;20039;-87
2023/06/10 00:09:38;;;;;;;11.38;5.53;;;17.10;99.90;;;;;;4915942;29;20029;-88
2023/06/10 00:12:11;;;;;;;12.68;5.40;;;17.10;99.90;;;;;;4884824;29;20338;-87
2023/06/10 00:14:39;;;;;;;11.13;5.53;;;17.10;99.90;;;;;;4900340;29;20033;-87
2023/06/10 00:17:08;;;;;;;11.90;5.93;;;17.00;99.90;;;;;;4885057;29;20060;-88
2023/06/10 00:19:35;;;;;;;10.80;5.45;;;17.00;99.90;;;;;;4901208;29;20422;-88
2023/06/10 00:22:01;;;;;;;13.25;5.55;;;17.00;99.90;;;;;;4900399;29;20339;-87
2023/06/10 00:24:27;;;;;;;10.65;5.55;;;17.00;99.90;;;;;;4900426;29;20051;-88
2023/06/10 00:26:53;;;;;;;10.80;5.70;;;17.00;99.90;;;;;;4884486;29;20033;-88
2023/06/10 00:29:19;;;;;;;13.23;5.63;;;16.90;99.90;;;;;;4884902;29;20030;-87
2023/06/10 00:31:45;;;;;;;8.85;4.72;;;16.90;99.90;;;;;;4900306;29;20035;-87
2023/06/10 00:34:12;;;;;;;8.43;5.32;;;16.90;99.90;;;;;;4900412;29;20041;-90
2023/06/10 00:36:38;;;;;;;9.40;4.97;;;16.90;99.90;;;;;;4900236;29;20168;-90
2023/06/10 00:39:04;;;;;;;13.98;5.63;;;16.90;99.90;;;;;;4900479;29;20064;-89
2023/06/10 00:41:31;;;;;;;11.48;5.68;;;16.90;99.90;;;;;;4900484;29;20075;-87
2023/06/10 00:43:57;;;;;;;13.00;5.22;;;16.90;99.90;;;;;;4887261;29;20052;-87
2023/06/10 00:46:25;;;;;;;11.35;5.80;;;16.90;99.90;;;;;;4888400;29;20036;-87
2023/06/10 00:48:52;;;;;;;11.85;5.60;;;16.80;99.90;;;;;;4888327;29;20068;-88
2023/06/10 00:51:19;;;;;;;10.65;5.80;;;16.80;99.90;;;;;;4904982;29;20036;-87
2023/06/10 00:53:45;;;;;;;14.43;6.55;;;16.80;99.90;;;;;;4888297;29;20068;-87
2023/06/10 00:56:13;;;;;;;11.13;5.53;;;16.80;99.90;;;;;;4888345;29;20036;-87
2023/06/10 00:58:39;;;;;;;10.77;5.72;;;16.70;99.90;;;;;;4919298;29;20422;-88
2023/06/10 01:01:05;;;;;;;11.32;5.90;;;16.70;99.90;;;;;;4888317;29;20067;-87
2023/06/10 01:03:32;;;;;;;10.10;5.20;;;16.70;99.90;;;;;;4887816;29;20064;-88
2023/06/10 01:06:17;;;;;;;15.30;6.15;;;16.70;99.90;;;;;;4888647;29;20052;-87
2023/06/10 01:09:16;;;;;;;13.15;6.13;;;16.60;99.90;;;;;;4919216;29;20031;-88
2023/06/10 01:12:03;;;;;;;13.73;5.63;;;16.60;99.90;;;;;;4899640;29;20344;-87
2023/06/10 01:14:31;;;;;;;13.32;5.93;;;16.60;99.90;;;;;;4918933;29;20033;-89
2023/06/10 01:17:00;;;;;;;11.68;5.45;;;16.50;99.90;;;;;;4884440;29;20044;-90
2023/06/10 01:19:26;;;;;;;10.73;6.00;;;16.50;99.90;;;;;;4869530;29;20033;-87
2023/06/10 01:21:54;;;;;;;9.60;6.03;;;16.50;99.90;;;;;;4884319;29;20040;-88
2023/06/10 01:24:21;;;;;;;10.05;5.90;;;16.50;99.90;;;;;;4868562;29;20083;-87
2023/06/10 01:26:51;;;;;;;11.02;5.60;;;16.50;99.90;;;;;;4899750;29;20041;-88
2023/06/10 01:29:33;;;;;;;11.35;6.30;;;16.40;99.90;;;;;;4884063;29;20152;-87
2023/06/10 01:32:11;;;;;;;9.55;5.57;;;16.40;99.90;;;;;;4869079;29;20055;-87
2023/06/10 01:34:40;;;;;;;9.68;5.63;;;16.40;99.90;;;;;;4883966;29;20037;-89
2023/06/10 01:37:11;;;;;;;14.27;6.13;;;16.40;99.90;;;;;;4868362;29;20040;-88
2023/06/10 01:39:40;;;;;;;14.10;5.80;;;16.40;99.90;;;;;;4868604;29;20029;-87
2023/06/10 01:42:13;;;;;;;8.63;5.28;;;16.40;99.90;;;;;;4883182;29;20075;-88
2023/06/10 01:44:39;;;;;;;10.95;6.18;;;16.30;99.90;;;;;;4883421;29;20049;-88
2023/06/10 01:47:08;;;;;;;12.68;6.40;;;16.30;99.90;;;;;;4868278;29;20041;-88
2023/06/10 01:49:36;;;;;;;15.63;6.80;;;16.20;99.90;;;;;;4868000;29;20064;-87
2023/06/10 01:52:02;;;;;;;9.38;5.78;;;16.20;99.90;;;;;;4852539;29;20041;-88
2023/06/10 01:54:29;;;;;;;10.70;6.00;;;16.20;99.90;;;;;;4882733;29;20120;-87
2023/06/10 01:56:55;;;;;;;11.10;5.55;;;16.10;99.90;;;;;;4867934;29;20033;-89
2023/06/10 01:59:21;;;;;;;13.10;5.88;;;16.20;99.90;;;;;;4883255;29;20037;-88
2023/06/10 02:01:47;;;;;;;9.45;5.50;;;16.10;99.90;;;;;;4885594;29;20048;-88
2023/06/10 02:04:16;;;;;;;11.95;6.10;;;16.10;99.90;;;;;;4888332;29;20426;-87
2023/06/10 02:06:42;;;;;;;11.32;6.07;;;16.10;99.90;;;;;;4903849;29;20056;-87
2023/06/10 02:09:08;;;;;;;12.07;6.43;;;16.00;99.90;;;;;;4887482;29;20381;-87
2023/06/10 02:11:34;;;;;;;12.63;5.65;;;16.00;99.90;;;;;;4872803;29;20041;-88
2023/06/10 02:14:00;;;;;;;14.80;6.43;;;16.00;99.90;;;;;;4856600;29;20087;-88
2023/06/10 02:16:26;;;;;;;9.45;5.60;;;15.90;99.90;;;;;;4872694;29;20049;-87
2023/06/10 02:18:52;;;;;;;13.95;6.03;;;15.90;99.90;;;;;;4887800;29;20156;-89
2023/06/10 02:21:18;;;;;;;12.18;6.43;;;15.90;99.90;;;;;;4842195;29;20045;-88
2023/06/10 02:23:44;;;;;;;12.30;6.38;;;15.90;99.90;;;;;;4887019;29;20044;-88
2023/06/10 02:26:11;;;;;;;13.68;6.38;;;15.80;99.90;;;;;;4856906;29;20339;-88
2023/06/10 02:28:37;;;;;;;13.30;6.10;;;15.80;99.90;;;;;;4872146;29;20040;-88
2023/06/10 02:31:03;;;;;;;11.65;6.10;;;15.80;99.90;;;;;;4857067;29;20025;-87
2023/06/10 02:33:29;;;;;;;11.23;6.13;;;15.70;99.90;;;;;;4871212;29;20120;-88
2023/06/10 02:35:55;;;;;;;12.10;6.38;;;15.70;99.90;;;;;;4871721;29;20041;-87
2023/06/10 02:38:22;;;;;;;10.45;6.05;;;15.60;99.90;;;;;;4886860;29;20045;-88
2023/06/10 02:40:49;;;;;;;10.88;6.60;;;15.60;99.90;;;;;;4856797;29;20485;-88
2023/06/10 02:43:15;;;;;;;11.85;5.75;;;15.60;99.90;;;;;;4871672;29;20053;-88
2023/06/10 02:45:44;;;;;;;10.05;6.07;;;15.50;99.90;;;;;;4887090;29;20044;-88
2023/06/10 02:48:11;;;;;;;13.35;6.60;;;15.50;99.90;;;;;;4857324;29;20093;-88
2023/06/10 02:50:39;;;;;;;10.63;6.57;;;15.50;99.90;;;;;;4887777;29;20075;-90
2023/06/10 02:53:20;;;;;;;10.63;6.20;;;15.50;99.90;;;;;;4872435;29;20061;-88
2023/06/10 02:55:52;;;;;;;9.43;6.07;;;15.40;99.90;;;;;;4872255;29;20041;-88
2023/06/10 02:58:20;;;;;;;13.88;6.25;;;15.40;99.90;;;;;;4870430;29;20068;-88
2023/06/10 03:00:47;;;;;;;11.70;6.22;;;15.30;99.90;;;;;;4869169;29;20181;-88
2023/06/10 03:03:14;;;;;;;12.20;6.18;;;15.30;99.90;;;;;;4853747;29;20040;-88
2023/06/10 03:05:56;;;;;;;13.32;6.13;;;15.30;99.90;;;;;;4872117;29;20048;-88
2023/06/10 03:08:23;;;;;;;15.38;6.65;;;15.30;99.90;;;;;;4870159;29;20037;-87
2023/06/10 03:10:50;;;;;;;10.98;6.78;;;15.20;99.90;;;;;;4869502;29;20040;-88
2023/06/10 03:13:17;;;;;;;10.95;6.35;;;15.20;99.90;;;;;;4868312;29;20124;-88
2023/06/10 03:15:45;;;;;;;12.57;6.72;;;15.20;99.90;;;;;;4884001;29;20044;-89
2023/06/10 03:18:14;;;;;;;12.55;7.00;;;15.10;99.90;;;;;;4866873;29;20040;-88
2023/06/10 03:20:44;;;;;;;10.32;6.28;;;15.10;99.90;;;;;;4886476;29;20549;-88
2023/06/10 03:23:10;;;;;;;11.60;6.25;;;15.10;99.90;;;;;;4871397;29;20056;-88
2023/06/10 03:25:41;;;;;;;11.50;6.53;;;15.10;99.90;;;;;;4902834;29;20036;-89
2023/06/10 03:28:08;;;;;;;12.25;6.93;;;15.10;99.90;;;;;;4887335;29;20060;-87
2023/06/10 03:30:37;;;;;;;12.52;6.68;;;15.00;99.90;;;;;;4903295;29;20053;-87
2023/06/10 03:33:03;;;;;;;12.30;7.03;;;15.00;99.90;;;;;;4886842;29;20033;-87
2023/06/10 03:35:32;;;;;;;13.95;6.57;;;15.00;99.90;;;;;;4872712;29;20044;-88
2023/06/10 03:37:58;;;;;;;15.85;6.28;;;15.00;99.90;;;;;;4888231;29;20487;-87
2023/06/10 03:40:25;;;;;;;12.43;6.60;;;15.00;99.90;;;;;;4888300;29;20080;-87
2023/06/10 03:42:51;;;;;;;10.93;5.95;;;14.90;99.90;;;;;;4887241;29;20423;-87
2023/06/10 03:45:18;;;;;;;12.57;6.65;;;14.90;99.90;;;;;;4871336;29;20386;-87
2023/06/10 03:47:47;;;;;;;13.40;6.60;;;14.90;99.90;;;;;;4856391;29;20056;-87
2023/06/10 03:50:16;;;;;;;9.73;6.35;;;14.90;99.90;;;;;;4886473;29;20441;-87
2023/06/10 03:52:47;;;;;;;11.45;6.47;;;14.80;99.90;;;;;;4885629;29;20028;-88
2023/06/10 03:55:18;;;;;;;10.18;6.28;;;14.80;99.90;;;;;;4842977;29;20322;-87
2023/06/10 03:57:45;;;;;;;10.75;5.95;;;14.90;99.90;;;;;;4870435;29;20073;-88
2023/06/10 04:00:12;;;;;;;12.77;6.30;;;14.80;99.90;;;;;;4901162;29;20033;-89
2023/06/10 04:02:49;;;;;;;13.00;6.10;;;14.90;99.90;;;;;;4886221;29;20033;-90
2023/06/10 04:05:28;;;;;;;12.27;6.10;;;14.80;99.90;;;;;;4887101;29;20044;-88
2023/06/10 04:07:54;;;;;;;12.38;6.13;;;14.80;99.90;;;;;;4884909;29;20032;-89
2023/06/10 04:10:21;;;;;;;13.93;6.75;;;14.80;99.90;;;;;;4886492;29;20363;-87
2023/06/10 04:12:46;;;;;;;11.00;6.10;;;14.80;99.90;;;;;;4885141;29;20041;-88
2023/06/10 04:15:13;;;;;;;10.18;5.97;;;14.80;99.90;;;;;;4885428;29;20040;-87
2023/06/10 04:17:40;;;;;;;12.20;6.03;;;14.80;99.90;;;;;;4869198;29;20438;-88
2023/06/10 04:20:07;;;;;;;11.48;6.22;;;14.80;99.90;;;;;;4869842;29;20040;-87
2023/06/10 04:22:36;;;;;;;12.20;6.10;;;14.80;99.90;;;;;;4869766;29;20033;-87
2023/06/10 04:25:02;;;;;;;11.68;6.20;;;14.80;99.90;;;;;;4869341;29;20135;-88
2023/06/10 04:27:30;;;;;;;17.10;5.95;;;14.80;99.90;;;;;;4900507;29;20033;-88
2023/06/10 04:29:56;;;;;;;11.00;6.43;;;14.80;99.90;;;;;;4886416;29;20044;-88
2023/06/10 04:32:22;;;;;;;10.93;6.00;;;14.80;99.90;;;;;;4900714;29;20028;-88
2023/06/10 04:34:49;;;;;;;12.93;5.80;;;14.80;99.90;;;;;;4839526;29;20047;-89
2023/06/10 04:37:17;;;;;;;10.02;5.30;;;14.90;99.90;;;;;;4885087;29;20414;-87
2023/06/10 04:39:43;;;;;;;10.68;6.00;;;14.90;99.90;;;;;;4885172;29;20342;-87
2023/06/10 04:42:10;;;;;;;11.73;5.78;;;14.90;99.90;;;;;;4869382;29;20092;-87
2023/06/10 04:44:37;;;;;;;11.40;5.50;;;14.90;99.90;;;;;;4884792;29;20052;-88
2023/06/10 04:47:03;;;;;;;11.52;6.00;;;14.90;99.90;;;;;;4869297;29;20106;-87
2023/06/10 04:49:29;;;;;;;9.70;5.50;;;14.90;99.90;;;;;;4885521;29;20375;-87
2023/06/10 04:51:55;;;;;;;12.75;6.70;;;15.00;99.90;;;;;;4899908;29;20036;-88
2023/06/10 04:54:22;;;;;;;11.80;5.70;;;15.00;99.90;;;;;;4839387;29;20132;-87
2023/06/10 04:56:49;;;;;;;15.25;6.93;;;15.00;99.90;;;;;;4869410;29;20502;-88
2023/06/10 04:59:18;;;;;;;10.90;5.70;;;15.10;99.90;;;;;;4884624;29;20387;-87
2023/06/10 05:01:44;;;;;;;12.75;5.53;;;15.10;99.90;;;;;;4884601;29;20120;-91
2023/06/10 05:04:10;;;;;;;11.20;5.85;;;15.10;99.90;;;;;;4899787;29;20048;-87
2023/06/10 05:06:36;;;;;;;12.93;5.68;;;15.20;99.90;;;;;;4884002;29;20055;-87
2023/06/10 05:09:02;;;;;;;13.60;6.00;;;15.20;99.90;;;;;;4899048;29;20059;-88
2023/06/10 05:11:28;;;;;;;12.75;6.07;;;15.20;99.90;;;;;;4853770;29;20029;-87
2023/06/10 05:13:54;;;;;;;13.68;5.93;;;15.20;99.90;;;;;;4868649;29;20139;-87
2023/06/10 05:16:21;;;;;;;14.27;6.22;;;15.30;99.90;;;;;;4899980;29;20036;-88
2023/06/10 05:18:47;;;;;;;12.98;6.22;;;15.30;99.90;;;;;;4884351;29;20041;-88
2023/06/10 05:21:13;;;;;;;12.68;6.00;;;15.30;99.90;;;;;;4883748;29;20346;-87
2023/06/10 05:23:39;;;;;;;10.95;5.88;;;15.40;99.90;;;;;;4883527;29;20082;-88
2023/06/10 05:26:05;;;;;;;9.45;5.10;;;15.40;99.90;;;;;;4883586;29;20048;-88
2023/06/10 05:28:31;;;;;;;11.20;6.40;;;15.50;99.90;;;;;;4869518;29;20430;-86
2023/06/10 05:30:57;;;;;;;15.45;5.90;;;15.50;99.90;;;;;;4918789;29;20442;-87
2023/06/10 05:33:23;;;;;;;12.70;6.13;;;15.60;99.90;;;;;;4887342;29;20041;-87
2023/06/10 05:35:49;;;;;;;12.82;6.07;;;15.60;99.90;;;;;;4902870;29;20079;-87
2023/06/10 05:38:18;;;;;;;13.45;7.05;;;15.60;99.90;;;;;;4883070;29;20068;-89
2023/06/10 05:40:44;;;;;;;13.25;6.00;;;15.70;99.90;;;;;;4899317;29;20033;-88
2023/06/10 05:43:12;;;;;;;11.30;5.97;;;15.70;99.90;;;;;;4882608;29;20451;-89
2023/06/10 05:45:40;;;;;;;13.68;5.70;;;15.70;99.90;;;;;;4868034;29;20040;-92
2023/06/10 05:48:06;;;;;;;10.35;5.53;;;15.80;99.90;;;;;;4882635;29;20037;-88
2023/06/10 05:50:37;;;;;;;13.05;5.57;;;15.90;99.90;;;;;;4883764;29;20483;-86
2023/06/10 05:53:04;;;;;;;11.07;5.32;;;15.90;99.90;;;;;;4867324;29;20037;-87
2023/06/10 05:55:30;;;;;;;13.57;6.85;;;16.00;99.90;;;;;;4898528;29;20088;-90
2023/06/10 05:58:00;;;;;;;12.75;5.93;;;16.00;99.90;;;;;;4882792;29;20045;-89
2023/06/10 06:00:29;;;;;;;14.65;6.70;;;16.00;99.90;;;;;;4883020;29;20036;-85
2023/06/10 06:02:55;;;;;;;13.65;6.43;;;16.10;99.90;;;;;;4882598;29;20088;-87
2023/06/10 06:05:21;;;;;;;12.77;5.38;;;16.20;99.90;;;;;;4882778;29;20041;-86
2023/06/10 06:07:47;;;;;;;15.10;6.03;;;16.20;99.90;;;;;;4867229;29;20029;-87
2023/06/10 06:10:13;;;;;;;10.93;5.95;;;16.20;99.90;;;;;;4898291;29;20108;-87
2023/06/10 06:12:39;;;;;;;13.45;6.00;;;16.20;99.90;;;;;;4882647;29;20680;-88
2023/06/10 06:15:06;;;;;;;14.20;5.68;;;16.30;99.90;;;;;;4897495;29;20029;-88
2023/06/10 06:17:33;;;;;;;12.13;5.40;;;16.40;99.90;;;;;;4879904;29;20037;-88
2023/06/10 06:20:02;;;;;;;13.80;5.85;;;16.40;99.90;;;;;;4873339;29;20426;-89
2023/06/10 06:22:31;;;;;;;13.18;5.90;;;16.40;99.90;;;;;;4875150;29;20397;-89
2023/06/10 06:24:57;;;;;;;11.43;5.57;;;16.40;99.90;;;;;;4883587;29;20431;-92
2023/06/10 06:27:25;;;;;;;12.88;6.00;;;16.50;99.90;;;;;;4886464;29;20032;-89
2023/06/10 06:29:52;;;;;;;12.40;5.93;;;16.50;99.90;;;;;;4886647;29;20032;-88
2023/06/10 06:32:18;;;;;;;9.93;5.10;;;16.60;99.90;;;;;;4870610;29;20040;-88
2023/06/10 06:34:47;;;;;;;11.55;5.78;;;16.70;99.90;;;;;;4886111;29;20438;-88
2023/06/10 06:37:13;;;;;;;14.18;5.85;;;16.80;99.90;;;;;;4886360;29;20044;-87
2023/06/10 06:39:44;;;;;;;14.88;6.32;;;16.80;99.90;;;;;;4886306;29;20322;-88
2023/06/10 06:42:10;;;;;;;11.88;5.50;;;16.90;99.90;;;;;;4885658;29;20096;-87
2023/06/10 06:44:56;;;;;;;13.83;5.93;;;17.00;99.90;;;;;;4872799;29;20062;-87
2023/06/10 06:47:24;;;;;;;11.45;5.90;;;17.10;99.90;;;;;;4870305;29;20132;-89
2023/06/10 06:49:50;;;;;;;11.70;5.38;;;17.20;99.90;;;;;;4886450;29;20057;-88
2023/06/10 06:52:17;;;;;;;12.95;6.20;;;17.20;99.90;;;;;;4916903;29;20037;-88
2023/06/10 06:54:43;;;;;;;13.05;5.60;;;17.20;99.90;;;;;;4885833;29;20029;-88
2023/06/10 06:57:09;;;;;;;12.07;5.13;;;17.40;99.90;;;;;;4870410;29;20040;-88
2023/06/10 06:59:35;;;;;;;10.73;5.43;;;17.40;99.90;;;;;;4901087;29;20124;-87
2023/06/10 07:02:02;;;;;;;10.48;5.75;;;17.50;99.90;;;;;;4885518;29;20036;-88
2023/06/10 07:04:28;;;;;;;11.40;6.13;;;17.60;99.90;;;;;;4866700;29;20475;-87
2023/06/10 07:06:54;;;;;;;12.38;5.43;;;17.60;99.90;;;;;;4882207;29;20045;-88
2023/06/10 07:09:20;;;;;;;11.57;5.90;;;17.70;99.90;;;;;;4882142;29;20308;-87
2023/06/10 07:11:46;;;;;;;11.30;5.45;;;17.80;99.90;;;;;;4884824;29;20380;-89
2023/06/10 07:14:12;;;;;;;10.68;5.43;;;17.90;99.90;;;;;;4884590;29;20029;-87
2023/06/10 07:16:38;;;;;;;11.57;5.13;;;17.90;99.90;;;;;;4870015;29;20033;-88
2023/06/10 07:19:04;;;;;;;13.10;5.68;;;18.00;99.90;;;;;;4900370;29;20036;-88
2023/06/10 07:21:32;;;;;;;11.05;5.72;;;18.10;99.90;;;;;;4900771;29;20119;-87
2023/06/10 07:23:58;;;;;;;10.23;5.13;;;18.20;99.90;;;;;;4885138;29;20139;-87
2023/06/10 07:26:25;;;;;;;12.77;5.07;;;18.30;99.90;;;;;;4900544;29;20033;-87
2023/06/10 07:28:51;;;;;;;10.82;5.32;;;18.40;99.90;;;;;;4900743;29;20435;-87
2023/06/10 07:31:17;;;;;;;14.77;5.57;;;18.50;99.90;;;;;;4900614;29;20586;-87
2023/06/10 07:33:43;;;;;;;15.50;6.15;;;18.60;99.90;;;;;;4869513;29;20039;-87
2023/06/10 07:36:09;;;;;;;12.32;5.43;;;18.70;99.90;;;;;;4884847;29;20033;-87
2023/06/10 07:38:36;;;;;;;11.20;5.00;;;18.80;99.90;;;;;;4900230;29;20036;-87
2023/06/10 07:41:02;;;;;;;11.50;5.53;;;18.90;99.90;;;;;;4884663;29;20051;-89
2023/06/10 07:43:29;;;;;;;9.35;4.95;;;18.90;99.90;;;;;;4884408;29;20430;-87
2023/06/10 07:45:55;;;;;;;10.10;4.57;;;19.00;99.90;;;;;;4885054;29;20490;-86
2023/06/10 07:48:21;;;;;;;10.05;4.90;;;19.20;99.90;;;;;;4884670;29;20044;-87
2023/06/10 07:50:48;;;;;;;13.57;5.30;;;19.30;99.90;;;;;;4869038;29;20128;-87
2023/06/10 07:53:14;;;;;;;10.27;5.45;;;19.40;99.90;;;;;;4897996;29;20037;-87
2023/06/10 07:55:43;;;;;;;12.20;5.53;;;19.50;99.90;;;;;;4875835;29;20051;-87
2023/06/10 07:58:10;;;;;;;11.43;5.07;;;19.60;99.90;;;;;;4853848;29;20388;-88
2023/06/10 08:00:41;;;;;;;12.07;5.03;;;19.70;99.90;;;;;;4900054;29;20040;-88
2023/06/10 08:03:07;;;;;;;8.50;4.80;;;19.90;99.90;;;;;;4868496;29;20497;-89
2023/06/10 08:05:33;;;;;;;9.70;4.78;;;20.00;99.90;;;;;;4873281;29;20060;-89
2023/06/10 08:07:59;;;;;;;10.25;4.60;;;20.10;99.90;;;;;;4876086;29;20060;-87
2023/06/10 08:10:26;;;;;;;12.85;4.65;;;20.20;99.90;;;;;;4869294;29;20044;-89
2023/06/10 08:12:54;;;;;;;9.07;4.25;;;20.30;99.90;;;;;;4914598;29;20145;-88
2023/06/10 08:15:23;;;;;;;8.50;4.40;;;20.40;99.90;;;;;;4881673;29;20029;-89
2023/06/10 08:17:51;;;;;;;8.52;4.40;;;20.50;99.90;;;;;;4900788;29;20032;-88
2023/06/10 08:20:21;;;;;;;10.85;4.72;;;20.60;99.90;;;;;;4894573;29;20045;-88
2023/06/10 08:22:49;;;;;;;9.07;4.22;;;20.60;99.90;;;;;;4899451;29;20418;-88
2023/06/10 08:25:16;;;;;;;10.60;4.15;;;20.60;99.90;;;;;;4865006;29;20033;-88
2023/06/10 08:27:42;;;;;;;8.98;4.45;;;20.80;99.90;;;;;;4868984;29;20052;-88
2023/06/10 08:30:13;;;;;;;9.65;4.35;;;20.80;99.90;;;;;;4884798;29;20047;-88
2023/06/10 08:32:39;;;;;;;12.73;4.63;;;20.90;99.90;;;;;;4884715;29;20419;-88
2023/06/10 08:35:05;;;;;;;9.48;4.38;;;21.00;99.90;;;;;;4899697;29;20080;-88
2023/06/10 08:37:31;;;;;;;8.43;3.97;;;21.10;99.90;;;;;;4910859;29;20028;-89
2023/06/10 08:39:57;;;;;;;8.38;4.10;;;21.30;99.90;;;;;;4883764;29;20116;-89
2023/06/10 08:42:33;;;;;;;8.07;4.20;;;21.30;99.90;;;;;;4879281;29;20439;-89
2023/06/10 08:45:03;;;;;;;6.82;4.03;;;21.40;99.90;;;;;;4899778;29;20051;-88
2023/06/10 08:47:40;;;;;;;10.38;4.38;;;21.50;99.90;;;;;;4866851;29;20045;-88
2023/06/10 08:50:06;;;;;;;;;;;21.60;99.90;;;;;;4869769;29;20327;-89
2023/06/10 08:52:40;;;;;;;9.13;3.95;;;21.70;99.90;;;;;;4898773;29;19911;-88
2023/06/10 08:55:14;;;;;;;9.02;4.18;;;21.80;99.90;;;;;;4899658;29;20037;-88
2023/06/10 08:57:45;;;;;;;10.60;4.40;;;21.90;99.90;;;;;;4883330;29;20311;-89
2023/06/10 09:00:13;;;;;;;8.98;4.50;;;22.00;99.90;;;;;;4884100;29;20296;-89
2023/06/10 09:02:39;;;;;;;9.63;4.30;;;22.10;99.90;;;;;;4899746;29;20455;-89
2023/06/10 09:05:10;;;;;;;7.60;3.97;;;22.20;99.90;;;;;;4872606;29;20052;-94
2023/06/10 09:07:39;;;;;;;10.35;4.40;;;22.30;99.90;;;;;;4884392;29;20052;-88
2023/06/10 09:10:07;;;;;;;9.77;4.10;;;22.40;99.90;;;;;;4869600;29;20040;-88
2023/06/10 09:12:35;;;;;;;8.50;3.90;;;22.50;99.90;;;;;;4869345;29;20161;-89
2023/06/10 09:15:02;;;;;;;10.32;4.22;;;22.60;99.90;;;;;;4884516;29;20031;-89
2023/06/10 09:17:28;;;;;;;8.10;4.22;;;22.60;99.90;;;;;;4875903;29;20104;-88
2023/06/10 09:19:55;;;;;;;10.43;4.00;;;22.70;99.90;;;;;;4903073;29;20073;-89
2023/06/10 09:22:23;;;;;;;6.85;3.60;;;22.80;99.90;;;;;;4887588;29;20481;-90
2023/06/10 09:25:08;;;;;;;8.00;3.75;;;22.80;99.90;;;;;;4902519;29;20181;-89
2023/06/10 09:27:50;;;;;;;8.65;3.72;;;22.90;99.90;;;;;;4899822;29;20037;-89
2023/06/10 09:30:31;;;;;;;10.73;5.10;;;23.10;99.60;;;;;;4869031;29;20033;-88
2023/06/10 09:32:59;;;;;;;8.68;4.03;;;23.10;99.90;;;;;;4885341;29;20062;-88
2023/06/10 09:35:30;;;;;;;6.38;3.65;;;23.20;99.90;;;;;;4869246;29;20056;-90
2023/06/10 09:37:58;;;;;;;9.82;4.65;;;23.30;99.70;;;;;;4881006;29;20044;-89
2023/06/10 09:40:25;;;;;;;10.55;4.15;;;23.40;99.60;;;;;;4887380;29;20040;-88
2023/06/10 09:42:59;;;;;;;8.20;4.13;;;23.40;99.90;;;;;;4902359;29;20449;-89
2023/06/10 09:45:32;;;;;;;9.43;4.40;;;23.60;99.90;;;;;;4887183;29;20047;-88
2023/06/10 09:48:03;;;;;;;9.85;4.32;;;23.70;99.90;;;;;;4886720;29;20120;-89
2023/06/10 09:50:44;;;;;;;9.52;4.50;;;23.70;99.90;;;;;;4883688;29;20395;-88
2023/06/10 09:53:13;;;;;;;9.40;3.55;;;23.70;99.90;;;;;;4898866;29;20033;-88
2023/06/10 09:55:40;;;;;;;9.23;4.10;;;23.80;99.60;;;;;;4899290;29;20040;-88
2023/06/10 09:58:06;;;;;;;8.93;4.10;;;23.90;99.20;;;;;;4883456;29;20041;-88
2023/06/10 10:00:34;;;;;;;6.97;3.67;;;23.90;99.20;;;;;;4868215;29;20112;-90
2023/06/10 10:03:00;;;;;;;11.93;3.90;;;24.00;98.90;;;;;;4883747;29;20048;-89
2023/06/10 10:05:27;;;;;;;6.65;3.40;;;24.10;98.10;;;;;;4868127;29;20132;-88
2023/06/10 10:07:56;;;;;;;8.52;3.25;;;24.10;98.40;;;;;;4883547;29;20116;-89
2023/06/10 10:10:23;;;;;;;8.70;3.67;;;24.30;97.70;;;;;;4871422;29;20037;-89
2023/06/10 10:12:58;;;;;;;9.88;3.90;;;24.30;97.70;;;;;;4872301;29;20419;-89
2023/06/10 10:15:32;;;;;;;6.93;3.05;;;24.30;97.80;;;;;;4901965;29;20456;-88
2023/06/10 10:18:09;;;;;;;7.65;3.65;;;24.40;97.90;;;;;;4887574;29;20368;-89
2023/06/10 10:20:43;;;;;;;8.02;4.15;;;24.60;98.30;;;;;;4901973;29;20037;-89
2023/06/10 10:23:13;;;;;;;6.50;3.70;;;24.70;97.90;;;;;;4902349;29;20035;-89
2023/06/10 10:25:45;;;;;;;7.15;3.63;;;24.90;97.90;;;;;;4887046;29;20403;-89
2023/06/10 10:28:12;;;;;;;7.90;3.50;;;24.90;97.30;;;;;;4918476;29;20419;-89
2023/06/10 10:30:51;;;;;;;8.43;3.60;;;24.90;97.50;;;;;;4899405;29;20469;-88
2023/06/10 10:33:39;;;;;;;7.63;3.53;;;25.00;96.80;;;;;;4884447;29;20024;-89
2023/06/10 10:36:07;;;;;;;10.25;4.15;;;25.00;95.50;;;;;;4883075;29;20068;-89
2023/06/10 10:38:36;;;;;;;9.05;4.10;;;25.00;96.30;;;;;;4867463;29;20052;-89
2023/06/10 10:41:04;;;;;;;8.43;4.10;;;25.00;97.20;;;;;;4868394;29;20112;-89
2023/06/10 10:43:30;;;;;;;8.98;4.07;;;25.10;97.60;;;;;;4852017;29;20479;-89
2023/06/10 10:46:10;;;;;;;7.00;3.50;;;25.10;97.50;;;;;;4852226;29;20033;-89
2023/06/10 10:48:39;;;;;;;11.10;4.47;;;25.20;97.60;;;;;;4882892;29;20025;-88
2023/06/10 10:51:10;;;;;;;12.95;3.92;;;25.20;97.50;;;;;;4860890;29;20041;-89
2023/06/10 10:53:47;;;;;;;7.78;3.80;;;25.30;97.40;;;;;;4882249;29;20025;-89
2023/06/10 10:56:18;;;;;;;7.25;4.10;;;25.20;97.10;;;;;;4911302;29;20376;-88
2023/06/10 10:59:19;;;;;;;9.38;3.60;;;25.20;97.40;;;;;;4901255;29;20037;-89
2023/06/10 11:01:46;;;;;;;14.23;3.63;;;25.30;97.90;;;;;;4841358;29;20048;-89
2023/06/10 11:04:22;;;;;;;7.28;3.65;;;25.30;97.30;;;;;;4882412;29;20048;-89
2023/06/10 11:06:53;;;;;;;7.15;3.53;;;25.40;97.30;;;;;;4882144;29;20446;-89
2023/06/10 11:09:37;;;;;;;8.63;3.63;;;25.50;97.30;;;;;;4882040;29;20060;-89
2023/06/10 11:12:06;;;;;;;6.22;3.42;;;25.70;97.00;;;;;;4860953;29;20037;-89
2023/06/10 11:14:33;;;;;;;7.35;3.20;;;25.70;96.70;;;;;;4901191;29;20025;-89
2023/06/10 11:16:59;;;;;;;6.20;3.50;;;25.70;96.60;;;;;;4901838;29;20055;-89
2023/06/10 11:19:34;;;;;;;8.98;3.40;;;25.70;96.20;;;;;;4885167;29;20028;-89
2023/06/10 11:22:09;;;;;;;7.90;3.25;;;25.80;96.00;;;;;;4885792;29;20119;-89
2023/06/10 11:24:37;;;;;;;6.03;3.20;;;25.90;96.00;;;;;;4901047;29;20036;-89
2023/06/10 11:27:22;;;;;;;7.43;3.58;;;25.90;95.90;;;;;;4884501;29;20036;-89
2023/06/10 11:30:17;;;;;;;5.00;2.78;;;26.00;94.60;;;;;;4882066;29;20040;-89
2023/06/10 11:33:04;;;;;;;8.75;3.10;;;26.00;94.60;;;;;;4886733;29;20064;-89
2023/06/10 11:35:33;;;;;;;9.70;3.03;;;26.10;95.00;;;;;;4899633;29;20374;-88
2023/06/10 11:38:01;;;;;;;9.38;3.42;;;26.10;95.00;;;;;;4903459;29;20047;-89
2023/06/10 11:40:36;;;;;;;7.15;3.20;;;26.20;94.90;;;;;;4919725;29;20422;-89
2023/06/10 11:43:05;;;;;;;7.43;3.25;;;26.30;94.90;;;;;;4887429;29;20040;-89
2023/06/10 11:45:31;;;;;;;6.50;2.85;;;26.40;94.60;;;;;;4887374;29;20036;-89
2023/06/10 11:47:58;;;;;;;7.25;2.92;;;26.30;94.20;;;;;;4888200;29;20414;-89
2023/06/10 11:50:32;;;;;;;6.95;3.40;;;26.30;94.30;;;;;;4917150;29;20083;-91
2023/06/10 11:53:01;;;;;;;9.63;4.03;;;26.40;94.90;;;;;;4903246;29;20039;-90
2023/06/10 11:55:44;;;;;;;7.03;3.45;;;26.40;95.40;;;;;;4902539;29;20032;-89
2023/06/10 11:58:23;;;;;;;10.00;3.75;;;26.40;96.50;;;;;;4918079;29;20039;-89
2023/06/10 12:00:56;;;;;;;9.32;3.63;;;26.60;97.80;;;;;;4918163;29;20059;-89
2023/06/10 12:03:28;;;;;;;10.15;4.20;;;26.60;98.40;;;;;;4917855;29;20028;-89
2023/06/10 12:06:02;;;;;;;10.07;4.20;;;26.60;99.10;;;;;;4894068;29;20041;-89
2023/06/10 12:08:29;;;;;;;8.50;3.60;;;26.60;99.60;;;;;;4915385;29;20059;-89
2023/06/10 12:10:57;;;;;;;6.43;3.15;;;26.60;99.90;;;;;;4900421;29;20036;-89
2023/06/10 12:13:30;;;;;;;7.95;3.80;;;26.70;99.90;;;;;;4884808;29;20110;-91
2023/06/10 12:16:09;;;;;;;15.85;4.30;;;26.70;99.90;;;;;;4870831;29;20037;-90
2023/06/10 12:19:03;;;;;;;9.15;4.25;;;26.70;99.90;;;;;;4883862;29;20041;-90
2023/06/10 12:21:33;;;;;;;9.55;4.28;;;26.60;99.90;;;;;;4866208;29;20033;-89
2023/06/10 12:24:12;;;;;;;8.48;4.13;;;26.40;99.90;;;;;;4881789;29;20154;-89
2023/06/10 12:26:47;;;;;;;8.80;4.30;;;26.50;99.90;;;;;;4850323;29;20124;-88
2023/06/10 12:29:22;;;;;;;10.80;4.50;;;26.40;99.90;;;;;;4866403;29;20033;-88
2023/06/10 12:32:02;;;;;;;11.20;4.82;;;26.50;99.90;;;;;;4880923;29;20113;-89
2023/06/10 12:34:39;;;;;;;11.32;4.50;;;26.40;99.90;;;;;;4880661;29;20052;-87
2023/06/10 12:37:13;;;;;;;9.48;4.78;;;26.40;99.90;;;;;;4880590;29;20056;-87
2023/06/10 12:39:40;;;;;;;9.02;4.05;;;26.40;99.90;;;;;;4871034;29;20033;-87
2023/06/10 12:42:09;;;;;;;13.35;4.65;;;26.40;99.90;;;;;;4856404;29;20071;-87
2023/06/10 12:44:39;;;;;;;10.05;4.70;;;26.50;99.90;;;;;;4886478;29;20105;-87
2023/06/10 12:47:12;;;;;;;13.45;5.05;;;26.40;99.90;;;;;;4871207;29;20088;-86
2023/06/10 12:49:39;;;;;;;12.20;4.80;;;26.30;99.90;;;;;;4871866;29;20052;-89
2023/06/10 12:52:07;;;;;;;12.75;4.65;;;26.30;99.90;;;;;;4887338;29;20062;-87